Time;durP1;ratioP1;P1;durP2;ratioP2;P2;SDS_P1;SDS_P2;PMS_P1;PMS_P2;Temp;Humidity;BMP_temperature;BMP_pressure;BME280_temperature;BME280_humidity;BME280_pressure;Samples;Min_cycle;Max_cycle;Signal;HPM_P1;HPM_P2
2021/12/06 00:01:22;;;;;;;43.67;28.93;;;;;;;2.10;98.34;99333.18;1461238;89;21584;-85
2021/12/06 00:04:03;;;;;;;42.57;29.17;;;;;;;2.09;98.42;99334.59;1463318;89;22030;-86
2021/12/06 00:06:33;;;;;;;40.00;27.00;;;;;;;2.10;98.21;99333.62;1455960;89;22730;-85
2021/12/06 00:09:06;;;;;;;45.50;30.68;;;;;;;2.13;98.20;99321.19;1457242;89;21844;-85
2021/12/06 00:11:34;;;;;;;43.23;27.63;;;;;;;2.16;98.19;99318.34;1462234;89;21457;-85
2021/12/06 00:14:02;;;;;;;40.13;28.20;;;;;;;2.20;98.05;99319.73;1462499;89;21787;-85
2021/12/06 00:16:30;;;;;;;38.93;25.73;;;;;;;2.22;97.81;99319.63;1451525;89;21847;-84
2021/12/06 00:18:56;;;;;;;45.00;27.63;;;;;;;2.19;97.87;99319.39;1449739;88;21746;-84
2021/12/06 00:21:24;;;;;;;44.47;26.43;;;;;;;2.18;97.68;99318.20;1453999;89;21937;-86
2021/12/06 00:23:51;;;;;;;37.90;26.77;;;;;;;2.08;98.29;99328.55;1462919;89;21773;-86
2021/12/06 00:26:18;;;;;;;40.73;27.60;;;;;;;2.06;98.17;99338.27;1460947;89;21684;-86
2021/12/06 00:28:49;;;;;;;32.70;22.83;;;;;;;2.04;98.22;99333.62;1443907;89;21773;-85
2021/12/06 00:31:16;;;;;;;30.10;18.42;;;;;;;1.98;99.01;99334.11;1460813;89;21675;-84
2021/12/06 00:33:52;;;;;;;38.67;24.03;;;;;;;2.00;98.92;99325.70;1459537;89;22538;-84
2021/12/06 00:36:26;;;;;;;37.83;24.63;;;;;;;1.95;99.42;99316.09;1441948;89;21825;-85
2021/12/06 00:38:45;;;;;;;42.80;27.90;;;;;;;1.93;99.45;99315.40;1454578;89;21840;-84
2021/12/06 00:41:12;;;;;;;38.33;25.53;;;;;;;1.96;99.37;99299.02;1453452;89;21746;-87
2021/12/06 00:43:38;;;;;;;40.93;27.13;;;;;;;1.99;99.31;99287.52;1455517;89;21650;-86
2021/12/06 00:46:05;;;;;;;40.40;26.07;;;;;;;2.03;99.24;99300.19;1460103;89;21685;-85
2021/12/06 00:48:31;;;;;;;43.80;27.80;;;;;;;2.06;99.30;99291.28;1463005;89;21695;-85
2021/12/06 00:50:57;;;;;;;39.50;26.67;;;;;;;2.11;98.90;99290.94;1452795;88;21756;-86
2021/12/06 00:53:24;;;;;;;38.93;25.23;;;;;;;2.20;98.80;99293.63;1438935;89;21915;-86
2021/12/06 00:55:50;;;;;;;45.00;25.80;;;;;;;2.20;98.80;99293.63;1439203;90;23136;-87
2021/12/06 00:58:17;;;;;;;37.77;24.80;;;;;;;2.21;98.34;99295.28;1430431;90;21801;-86
2021/12/06 01:00:48;;;;;;;33.10;22.00;;;;;;;2.23;98.24;99301.22;1420907;89;21695;-87
2021/12/06 01:03:18;;;;;;;35.40;24.40;;;;;;;2.22;98.17;99307.41;1473933;89;22742;-87
2021/12/06 01:05:47;;;;;;;37.78;23.73;;;;;;;2.15;98.37;99303.60;1442582;89;21552;-87
2021/12/06 01:08:13;;;;;;;31.43;21.97;;;;;;;1.96;99.53;99306.03;1460625;89;21660;-86
2021/12/06 01:10:40;;;;;;;37.70;24.17;;;;;;;1.96;99.53;99306.03;1442150;90;21827;-86
2021/12/06 01:13:07;;;;;;;33.23;21.97;;;;;;;1.92;100.00;99305.41;1442622;90;21754;-86
2021/12/06 01:15:38;;;;;;;31.20;20.23;;;;;;;1.93;100.00;99308.88;1441345;90;21688;-86
2021/12/06 01:18:09;;;;;;;26.90;18.50;;;;;;;1.95;100.00;99303.04;1407899;90;22841;-86
2021/12/06 01:20:52;;;;;;;34.65;23.57;;;;;;;1.97;100.00;99295.93;1440371;90;21406;-85
2021/12/06 01:23:16;;;;;;;32.70;21.50;;;;;;;1.91;100.00;99292.50;1458649;89;22593;-85
2021/12/06 01:28:59;;;;;;;36.63;23.33;;;;;;;1.88;100.00;99279.70;1491298;87;21456;-85
2021/12/06 01:33:40;;;;;;;31.80;22.80;;;;;;;1.94;100.00;99269.59;1489103;87;21685;-86
2021/12/06 01:41:36;;;;;;;32.97;21.57;;;;;;;2.12;100.00;99253.43;1493806;87;21665;-87
2021/12/06 01:44:10;;;;;;;28.93;20.73;;;;;;;2.08;100.00;99249.42;1488388;87;21789;-86
2021/12/06 01:46:42;;;;;;;32.53;22.13;;;;;;;2.03;100.00;99255.81;1481450;87;21765;-85
2021/12/06 01:49:09;;;;;;;33.03;23.03;;;;;;;1.99;100.00;99254.41;1483593;87;22805;-86
2021/12/06 01:51:37;;;;;;;32.33;20.13;;;;;;;2.02;100.00;99253.34;1542262;87;21821;-87
2021/12/06 01:54:06;;;;;;;31.03;21.57;;;;;;;2.02;100.00;99253.34;1484402;87;21784;-86
2021/12/06 01:56:33;;;;;;;29.60;20.40;;;;;;;2.05;100.00;99260.93;1484961;87;21668;-86
2021/12/06 01:58:59;;;;;;;34.60;23.23;;;;;;;1.95;100.00;99255.59;1482699;87;21802;-85
2021/12/06 02:01:26;;;;;;;33.17;22.00;;;;;;;1.87;100.00;99250.17;1483012;87;21758;-86
2021/12/06 02:03:53;;;;;;;34.43;22.07;;;;;;;1.87;100.00;99250.17;1486608;87;21918;-86
2021/12/06 02:06:19;;;;;;;30.00;20.20;;;;;;;1.90;100.00;99247.77;1486233;87;21799;-85
2021/12/06 02:08:47;;;;;;;27.97;17.73;;;;;;;1.82;100.00;99239.27;1468210;87;21677;-86
2021/12/06 02:11:14;;;;;;;32.73;20.47;;;;;;;1.70;100.00;99237.63;1484657;87;22732;-85
2021/12/06 02:13:52;;;;;;;24.23;16.97;;;;;;;1.68;100.00;99239.03;1483880;87;21597;-87
2021/12/06 02:16:12;;;;;;;;;;;;;;;1.70;100.00;99233.23;1486287;87;21781;-86
2021/12/06 02:18:44;;;;;;;33.63;20.47;;;;;;;1.68;100.00;99235.60;1487288;87;20409;-86
2021/12/06 02:21:19;;;;;;;26.20;17.73;;;;;;;1.72;100.00;99231.79;1481620;87;22734;-86
2021/12/06 02:23:48;;;;;;;34.77;21.30;;;;;;;1.68;100.00;99229.91;1486071;87;21785;-86
2021/12/06 02:26:16;;;;;;;27.30;18.53;;;;;;;1.71;100.00;99234.88;1483075;87;22735;-85
2021/12/06 02:28:44;;;;;;;35.70;21.00;;;;;;;1.76;100.00;99238.45;1476428;87;21690;-86
2021/12/06 02:31:11;;;;;;;26.47;18.07;;;;;;;1.78;100.00;99232.61;1475365;88;22522;-86
2021/12/06 02:33:37;;;;;;;26.37;17.67;;;;;;;1.74;100.00;99235.94;1458737;88;21608;-85
2021/12/06 02:36:04;;;;;;;26.50;18.60;;;;;;;1.76;100.00;99237.14;1478674;87;21687;-85
2021/12/06 02:38:32;;;;;;;28.20;18.43;;;;;;;1.75;100.00;99241.50;1476639;88;22970;-85
2021/12/06 02:40:58;;;;;;;26.93;18.47;;;;;;;1.76;100.00;99245.79;1465485;88;21864;-85
2021/12/06 02:43:25;;;;;;;25.47;15.90;;;;;;;1.69;100.00;99236.77;1474632;88;21838;-87
2021/12/06 02:45:51;;;;;;;25.90;15.87;;;;;;;1.69;100.00;99234.16;1480828;87;21542;-85
2021/12/06 02:48:18;;;;;;;25.40;16.33;;;;;;;1.67;100.00;99241.30;1480213;88;21531;-84
2021/12/06 02:50:53;;;;;;;24.33;16.33;;;;;;;1.67;100.00;99225.65;1457439;88;22492;-85
2021/12/06 02:53:24;;;;;;;23.70;14.60;;;;;;;1.69;100.00;99218.99;1477861;87;21862;-86
2021/12/06 02:55:53;;;;;;;28.40;17.82;;;;;;;1.71;100.00;99217.92;1480679;87;22977;-87
2021/12/06 03:01:14;;;;;;;25.33;17.87;;;;;;;1.74;100.00;99209.85;1479922;87;21765;-85
2021/12/06 03:03:41;;;;;;;27.47;16.17;;;;;;;1.73;100.00;99214.73;1479875;87;21838;-86
2021/12/06 03:06:09;;;;;;;20.90;13.70;;;;;;;1.76;100.00;99214.48;1478597;87;21967;-86
2021/12/06 03:09:08;;;;;;;18.97;13.07;;;;;;;1.76;100.00;99212.36;1478854;87;21678;-86
2021/12/06 03:11:55;;;;;;;21.73;12.87;;;;;;;1.71;100.00;99219.71;1478001;88;21846;-85
2021/12/06 03:14:30;;;;;;;19.00;12.67;;;;;;;1.65;100.00;99222.80;1477534;87;22486;-85
2021/12/06 03:17:00;;;;;;;20.90;13.17;;;;;;;1.65;100.00;99222.80;1482576;88;21884;-86
2021/12/06 03:19:27;;;;;;;22.23;12.03;;;;;;;1.58;100.00;99221.13;1479193;87;22773;-87
2021/12/06 03:21:54;;;;;;;18.33;11.57;;;;;;;1.63;100.00;99216.39;1478825;87;21640;-86
2021/12/06 03:24:24;;;;;;;18.03;12.43;;;;;;;1.63;100.00;99212.95;1477479;87;21699;-86
2021/12/06 03:26:51;;;;;;;18.05;10.95;;;;;;;1.69;100.00;99208.56;1483793;87;22286;-85
2021/12/06 03:29:18;;;;;;;15.93;11.10;;;;;;;1.71;100.00;99201.45;1476309;88;23421;-86
2021/12/06 03:31:47;;;;;;;16.63;10.37;;;;;;;1.75;100.00;99202.85;1476584;88;22853;-86
2021/12/06 03:34:18;;;;;;;19.60;11.37;;;;;;;1.76;100.00;99207.96;1491970;88;21631;-86
2021/12/06 03:36:47;;;;;;;15.03;10.95;;;;;;;1.77;100.00;99212.22;1470379;88;22566;-86
2021/12/06 03:39:23;;;;;;;15.23;10.37;;;;;;;1.76;100.00;99205.35;1512796;88;21411;-86
2021/12/06 03:41:54;;;;;;;14.97;10.07;;;;;;;1.82;100.00;99205.83;1471382;88;21729;-86
2021/12/06 03:44:22;;;;;;;15.67;10.00;;;;;;;1.84;100.00;99201.30;1486670;88;21871;-85
2021/12/06 03:46:53;;;;;;;15.40;10.67;;;;;;;1.86;100.00;99207.23;1471558;88;21624;-86
2021/12/06 03:49:26;;;;;;;12.50;8.33;;;;;;;1.90;100.00;99208.63;1473444;88;21832;-85
2021/12/06 03:51:54;;;;;;;15.40;9.60;;;;;;;1.87;100.00;99208.87;1476992;88;21742;-86
2021/12/06 03:54:26;;;;;;;13.03;7.87;;;;;;;1.85;100.00;99212.10;1474279;88;22638;-86
2021/12/06 03:56:53;;;;;;;16.83;9.50;;;;;;;1.74;100.00;99213.77;1472160;88;21936;-87
2021/12/06 03:59:20;;;;;;;15.07;10.10;;;;;;;1.74;100.00;99211.16;1473204;88;21944;-87
2021/12/06 04:01:48;;;;;;;14.80;9.13;;;;;;;1.77;100.00;99215.31;1472863;88;21691;-87
2021/12/06 04:04:15;;;;;;;14.33;8.60;;;;;;;1.69;100.00;99222.42;1472584;88;21633;-87
2021/12/06 04:06:43;;;;;;;13.73;8.07;;;;;;;1.69;100.00;99225.03;1467914;88;21707;-87
2021/12/06 04:09:10;;;;;;;12.17;7.17;;;;;;;1.72;100.00;99220.88;1475465;88;21984;-87
2021/12/06 04:11:38;;;;;;;16.40;9.00;;;;;;;1.73;100.00;99228.25;1474448;88;21677;-85
2021/12/06 04:14:06;;;;;;;17.53;8.97;;;;;;;1.78;100.00;99223.03;1474159;88;21678;-86
2021/12/06 04:16:33;;;;;;;12.90;7.90;;;;;;;1.83;100.00;99208.78;1459249;88;22880;-86
2021/12/06 04:18:59;;;;;;;14.37;8.87;;;;;;;1.82;100.00;99216.27;1476474;88;21728;-86
2021/12/06 04:21:27;;;;;;;14.00;8.73;;;;;;;1.83;100.00;99216.13;1456634;88;21826;-86
2021/12/06 04:23:53;;;;;;;16.60;8.60;;;;;;;1.86;100.00;99214.58;1473504;88;21795;-85
2021/12/06 04:26:21;;;;;;;14.27;8.10;;;;;;;1.91;100.00;99222.87;1472359;88;21663;-85
2021/12/06 04:28:57;;;;;;;17.20;8.70;;;;;;;1.96;100.00;99218.61;1462498;88;22389;-85
2021/12/06 04:31:17;;;;;;;16.10;8.27;;;;;;;2.01;100.00;99217.28;1480268;88;21750;-88
2021/12/06 04:33:43;;;;;;;12.80;8.00;;;;;;;2.07;100.00;99221.16;1480010;87;21870;-87
2021/12/06 04:36:10;;;;;;;14.37;9.23;;;;;;;2.07;100.00;99227.69;1481134;88;21809;-87
2021/12/06 04:38:37;;;;;;;12.20;8.07;;;;;;;2.07;100.00;99227.69;1476416;88;22008;-87
2021/12/06 04:41:07;;;;;;;16.60;9.50;;;;;;;2.05;100.00;99219.65;1480065;88;21851;-86
2021/12/06 04:43:33;;;;;;;14.78;8.15;;;;;;;2.05;100.00;99217.86;1483464;88;21737;-86
2021/12/06 04:46:01;;;;;;;10.07;7.33;;;;;;;2.05;100.00;99216.56;1484020;88;21433;-86
2021/12/06 04:48:29;;;;;;;14.67;8.13;;;;;;;2.10;100.00;99216.17;1473465;88;22387;-86
2021/12/06 04:50:56;;;;;;;13.43;7.57;;;;;;;2.10;100.00;99216.17;1479818;87;21882;-86
2021/12/06 04:53:38;;;;;;;9.40;7.00;;;;;;;2.13;100.00;99214.17;1485465;88;21893;-86
2021/12/06 04:56:22;;;;;;;14.30;7.63;;;;;;;2.11;100.00;99210.84;1450505;90;22017;-86
2021/12/06 04:58:58;;;;;;;17.37;8.63;;;;;;;2.11;100.00;99210.84;1469102;88;22068;-86
2021/12/06 05:01:28;;;;;;;19.53;9.83;;;;;;;2.15;100.00;99214.03;1469715;88;21715;-86
2021/12/06 05:03:59;;;;;;;11.05;7.22;;;;;;;2.15;100.00;99213.55;1471554;88;22743;-86
2021/12/06 05:06:30;;;;;;;13.40;7.73;;;;;;;2.19;100.00;99216.28;1472741;88;21492;-86
2021/12/06 05:09:00;;;;;;;11.63;7.33;;;;;;;2.23;100.00;99216.85;1473587;88;21845;-86
2021/12/06 05:11:29;;;;;;;12.47;7.00;;;;;;;2.29;100.00;99216.84;1441807;88;21539;-86
2021/12/06 05:14:01;;;;;;;12.30;7.00;;;;;;;2.26;100.00;99221.83;1554241;88;21345;-86
2021/12/06 05:16:27;;;;;;;12.03;8.10;;;;;;;2.26;100.00;99221.83;1389627;92;21865;-85
2021/12/06 05:18:53;;;;;;;16.23;9.73;;;;;;;2.25;100.00;99225.40;1495411;88;21315;-85
2021/12/06 05:21:20;;;;;;;15.40;9.77;;;;;;;2.24;100.00;99228.49;1555705;88;21624;-86
2021/12/06 05:23:47;;;;;;;17.77;9.60;;;;;;;2.23;100.00;99229.42;1480790;88;21974;-87
2021/12/06 05:26:13;;;;;;;14.67;7.67;;;;;;;2.18;100.00;99228.14;1487430;88;22681;-88
2021/12/06 05:28:43;;;;;;;16.17;8.63;;;;;;;2.25;100.00;99237.97;1466962;88;21966;-87
2021/12/06 05:31:15;;;;;;;12.83;7.30;;;;;;;2.24;100.00;99242.85;1469215;88;21885;-87
2021/12/06 05:33:47;;;;;;;9.93;6.72;;;;;;;2.25;100.00;99247.11;1453539;90;21804;-87
2021/12/06 05:36:17;;;;;;;12.77;7.43;;;;;;;2.30;100.00;99252.42;1441592;90;21542;-87
2021/12/06 05:38:44;;;;;;;16.07;8.20;;;;;;;2.27;100.00;99249.58;1481811;90;21921;-87
2021/12/06 05:41:11;;;;;;;13.20;7.70;;;;;;;2.31;100.00;99252.80;1450491;90;22839;-87
2021/12/06 05:43:37;;;;;;;10.73;7.60;;;;;;;2.30;100.00;99251.12;1445343;90;21851;-87
2021/12/06 05:46:04;;;;;;;10.00;7.23;;;;;;;2.26;100.00;99254.45;1443243;90;22017;-85
2021/12/06 05:48:31;;;;;;;12.17;7.07;;;;;;;2.26;100.00;99254.45;1452768;90;21715;-85
2021/12/06 05:50:57;;;;;;;19.57;8.73;;;;;;;2.28;100.00;99263.01;1450384;90;21891;-84
2021/12/06 05:53:24;;;;;;;11.50;6.70;;;;;;;2.28;100.00;99264.80;1451736;90;21936;-85
2021/12/06 05:55:51;;;;;;;11.57;7.70;;;;;;;2.30;100.00;99258.95;1428134;90;22037;-86
2021/12/06 05:58:22;;;;;;;14.57;7.80;;;;;;;2.35;100.00;99262.85;1448657;90;21759;-85
2021/12/06 06:00:49;;;;;;;14.63;8.23;;;;;;;2.32;100.00;99257.05;1452465;90;22017;-87
2021/12/06 06:03:16;;;;;;;9.13;6.70;;;;;;;2.34;100.00;99268.22;1450812;90;22698;-88
2021/12/06 06:05:43;;;;;;;94.43;36.80;;;;;;;2.30;100.00;99279.84;1447964;90;21688;-86
2021/12/06 06:08:09;;;;;;;159.73;68.53;;;;;;;2.30;100.00;99279.84;1450040;90;21940;-87
2021/12/06 06:10:36;;;;;;;572.23;273.97;;;;;;;2.31;100.00;99277.13;1448722;90;21755;-86
2021/12/06 06:13:07;;;;;;;120.00;54.17;;;;;;;2.29;100.00;99276.89;1450661;90;21805;-86
2021/12/06 06:15:34;;;;;;;72.32;46.25;;;;;;;2.36;100.00;99280.65;1449680;90;21845;-86
2021/12/06 06:18:02;;;;;;;27.57;19.00;;;;;;;2.42;100.00;99286.23;1445729;90;21421;-86
2021/12/06 06:20:39;;;;;;;16.43;11.70;;;;;;;2.42;100.00;99286.23;1462716;90;21929;-87
2021/12/06 06:23:11;;;;;;;17.83;12.83;;;;;;;2.42;100.00;99286.71;1449516;90;22450;-87
2021/12/06 06:25:39;;;;;;;13.67;9.47;;;;;;;2.37;100.00;99292.77;1449042;90;22133;-87
2021/12/06 06:28:07;;;;;;;11.63;6.53;;;;;;;2.37;100.00;99292.77;1444043;90;22015;-87
2021/12/06 06:30:36;;;;;;;11.43;7.67;;;;;;;2.33;100.00;99287.42;1442735;90;23853;-87
2021/12/06 06:33:05;;;;;;;14.90;10.57;;;;;;;2.24;100.00;99278.09;1528465;90;21778;-86
2021/12/06 06:35:34;;;;;;;8.20;6.30;;;;;;;2.22;100.00;99283.91;1530823;90;21755;-87
2021/12/06 06:38:06;;;;;;;9.07;6.43;;;;;;;2.22;100.00;99283.91;1471155;90;22699;-87
2021/12/06 06:40:33;;;;;;;13.87;9.23;;;;;;;2.16;100.00;99283.09;1530671;90;21860;-88
2021/12/06 06:43:02;;;;;;;29.40;17.03;;;;;;;2.17;100.00;99289.14;1447402;90;22095;-87
2021/12/06 06:45:30;;;;;;;25.90;16.33;;;;;;;2.10;100.00;99282.28;1452480;90;22008;-87
2021/12/06 06:48:00;;;;;;;17.53;10.80;;;;;;;2.20;100.00;99293.63;1452917;90;23045;-86
2021/12/06 06:50:30;;;;;;;13.50;8.63;;;;;;;2.22;100.00;99296.14;1445973;90;22006;-83
2021/12/06 06:53:04;;;;;;;8.28;6.00;;;;;;;2.22;100.00;99296.14;1448859;90;22083;-82
2021/12/06 06:55:31;;;;;;;13.63;8.73;;;;;;;2.17;100.00;99297.80;1449520;90;21479;-83
2021/12/06 06:58:00;;;;;;;11.57;6.97;;;;;;;2.17;100.00;99297.80;1439916;90;21902;-83
2021/12/06 07:00:34;;;;;;;11.53;7.43;;;;;;;2.19;100.00;99301.60;1424509;91;21850;-85
2021/12/06 07:03:03;;;;;;;13.67;8.93;;;;;;;2.21;100.00;99305.72;1423464;90;22339;-86
2021/12/06 07:05:29;;;;;;;18.67;11.30;;;;;;;2.21;100.00;99305.72;1419523;91;22789;-85
2021/12/06 07:07:58;;;;;;;12.33;8.60;;;;;;;2.25;100.00;99308.47;1425252;90;21866;-85
2021/12/06 07:10:26;;;;;;;15.57;10.57;;;;;;;2.26;100.00;99311.42;1445963;91;22165;-85
2021/12/06 07:12:54;;;;;;;8.23;6.43;;;;;;;2.26;100.00;99311.42;1425842;90;21916;-85
2021/12/06 07:15:31;;;;;;;26.63;14.47;;;;;;;2.35;100.00;99318.17;1480191;91;21905;-85
2021/12/06 07:18:09;;;;;;;16.07;9.57;;;;;;;2.35;100.00;99318.17;1427031;91;23305;-86
2021/12/06 07:20:38;;;;;;;16.07;10.17;;;;;;;2.35;100.00;99327.31;1427355;91;22030;-85
2021/12/06 07:23:06;;;;;;;9.83;6.35;;;;;;;2.35;100.00;99327.31;1424113;91;23176;-86
2021/12/06 07:25:34;;;;;;;14.83;9.63;;;;;;;2.34;100.00;99324.35;1410811;91;23585;-86
2021/12/06 07:28:09;;;;;;;9.83;6.07;;;;;;;2.36;100.00;99327.66;1427674;90;22062;-85
2021/12/06 07:30:41;;;;;;;9.53;7.87;;;;;;;2.31;100.00;99329.34;1426363;91;22053;-85
2021/12/06 07:33:08;;;;;;;8.83;5.70;;;;;;;2.35;100.00;99328.61;1427197;91;22054;-87
2021/12/06 07:35:39;;;;;;;9.87;6.20;;;;;;;2.34;100.00;99332.19;1426725;91;22874;-85
2021/12/06 07:38:07;;;;;;;10.63;6.13;;;;;;;2.15;100.00;99329.70;1426131;91;21972;-85
2021/12/06 07:40:34;;;;;;;7.50;6.30;;;;;;;2.15;100.00;99329.70;1424739;91;22851;-85
2021/12/06 07:43:02;;;;;;;9.70;7.07;;;;;;;2.13;100.00;99342.07;1422707;91;22610;-85
2021/12/06 07:45:28;;;;;;;10.03;6.80;;;;;;;2.17;100.00;99342.17;1426669;90;21943;-86
2021/12/06 07:47:56;;;;;;;11.27;7.60;;;;;;;2.17;100.00;99339.56;1428225;91;23277;-85
2021/12/06 07:50:31;;;;;;;10.33;7.00;;;;;;;2.17;100.00;99339.56;1425397;91;22119;-85
2021/12/06 07:52:56;;;;;;;11.03;7.17;;;;;;;2.22;100.00;99347.88;1428950;91;21921;-85
2021/12/06 07:55:30;;;;;;;14.83;9.57;;;;;;;2.22;100.00;99347.88;1425409;91;22184;-86
2021/12/06 07:57:58;;;;;;;9.30;7.03;;;;;;;2.24;100.00;99362.95;1466839;90;22138;-85
2021/12/06 08:00:33;;;;;;;8.90;4.93;;;;;;;2.24;100.00;99362.95;1514572;91;22567;-88
2021/12/06 08:03:00;;;;;;;8.97;5.30;;;;;;;2.25;100.00;99359.38;1498651;91;22713;-87
2021/12/06 08:05:35;;;;;;;7.93;5.90;;;;;;;2.24;100.00;99360.34;1456756;91;21903;-87
2021/12/06 08:08:23;;;;;;;9.33;6.33;;;;;;;2.26;100.00;99357.59;1515275;91;21681;-87
2021/12/06 08:10:57;;;;;;;8.87;5.27;;;;;;;2.26;100.00;99357.59;1383851;91;21837;-86
2021/12/06 08:13:28;;;;;;;8.63;6.67;;;;;;;2.29;100.00;99346.08;1514563;91;22680;-86
2021/12/06 08:15:58;;;;;;;7.87;5.60;;;;;;;2.42;100.00;99352.00;1514715;91;21703;-86
2021/12/06 08:18:26;;;;;;;8.13;5.35;;;;;;;2.45;100.00;99362.20;1444594;91;21496;-86
2021/12/06 08:20:56;;;;;;;10.40;6.73;;;;;;;2.40;100.00;99356.50;1466435;91;21335;-86
2021/12/06 08:23:28;;;;;;;7.53;4.90;;;;;;;2.38;100.00;99358.40;1471866;91;22016;-86
2021/12/06 08:25:55;;;;;;;;;;;;;;;2.31;100.00;99366.38;1487257;91;22163;-86
2021/12/06 08:28:26;;;;;;;8.50;5.83;;;;;;;2.35;100.00;99365.17;1486718;91;20280;-85
2021/12/06 08:30:53;;;;;;;6.83;5.37;;;;;;;2.37;100.00;99375.03;1433814;91;21901;-86
2021/12/06 08:33:33;;;;;;;6.27;4.83;;;;;;;2.34;100.00;99374.80;1433846;91;22419;-86
2021/12/06 08:36:05;;;;;;;8.23;5.53;;;;;;;2.34;100.00;99374.80;1429394;91;23349;-86
2021/12/06 08:38:34;;;;;;;7.83;5.83;;;;;;;2.37;100.00;99372.42;1433174;91;21940;-85
2021/12/06 08:41:07;;;;;;;11.22;6.80;;;;;;;2.30;100.00;99372.53;1435401;91;22351;-85
2021/12/06 08:43:34;;;;;;;8.13;6.03;;;;;;;2.36;100.00;99379.43;1432189;91;21605;-86
2021/12/06 08:46:08;;;;;;;12.27;5.93;;;;;;;2.28;100.00;99371.36;1436469;91;22303;-86
2021/12/06 08:48:38;;;;;;;7.13;5.27;;;;;;;2.26;100.00;99367.55;1413815;92;22640;-85
2021/12/06 08:51:16;;;;;;;8.50;6.23;;;;;;;2.26;100.00;99367.55;1467587;91;21902;-85
2021/12/06 08:53:44;;;;;;;7.03;5.27;;;;;;;2.33;100.00;99376.20;1488819;91;22278;-84
2021/12/06 08:56:11;;;;;;;10.07;6.63;;;;;;;2.35;100.00;99377.75;1459588;91;22094;-86
2021/12/06 08:58:40;;;;;;;8.87;6.20;;;;;;;2.35;100.00;99366.00;1476906;90;23031;-85
2021/12/06 09:01:07;;;;;;;7.60;5.30;;;;;;;2.47;100.00;99371.58;1434616;91;22122;-85
2021/12/06 09:03:35;;;;;;;8.83;6.67;;;;;;;2.56;100.00;99371.32;1432534;90;22259;-85
2021/12/06 09:06:05;;;;;;;9.13;6.23;;;;;;;2.55;100.00;99366.20;1514801;91;21923;-85
2021/12/06 09:08:36;;;;;;;8.73;5.83;;;;;;;2.66;100.00;99376.15;1429138;90;22165;-84
2021/12/06 09:11:04;;;;;;;8.55;5.97;;;;;;;2.67;100.00;99367.34;1439794;91;22187;-84
2021/12/06 09:13:31;;;;;;;9.17;6.27;;;;;;;2.74;100.00;99367.70;1514606;91;21318;-84
2021/12/06 09:16:02;;;;;;;18.93;7.80;;;;;;;2.75;100.00;99368.53;1484496;91;22071;-83
2021/12/06 09:18:34;;;;;;;8.00;5.78;;;;;;;2.77;100.00;99367.94;1431396;90;22343;-84
2021/12/06 09:21:06;;;;;;;6.97;5.13;;;;;;;2.80;100.00;99368.52;1432190;91;22476;-84
2021/12/06 09:23:32;;;;;;;9.20;6.37;;;;;;;2.80;100.00;99369.81;1435298;91;22188;-82
2021/12/06 09:26:01;;;;;;;9.63;5.23;;;;;;;2.80;100.00;99369.81;1428954;91;22380;-84
2021/12/06 09:28:28;;;;;;;8.73;6.00;;;;;;;2.87;100.00;99372.27;1433742;91;22298;-84
2021/12/06 09:31:15;;;;;;;8.40;5.27;;;;;;;2.88;100.00;99370.03;1445754;88;22235;-84
2021/12/06 09:33:44;;;;;;;8.43;5.73;;;;;;;2.85;100.00;99371.59;1455832;88;22231;-85
2021/12/06 09:36:12;;;;;;;10.40;6.07;;;;;;;2.83;100.00;99368.75;1414711;91;22298;-84
2021/12/06 09:38:41;;;;;;;9.70;5.00;;;;;;;2.86;100.00;99361.96;1461526;89;22000;-84
2021/12/06 09:41:19;;;;;;;6.83;5.17;;;;;;;2.90;100.00;99363.36;1452595;89;22334;-84
2021/12/06 09:43:45;;;;;;;8.10;5.07;;;;;;;2.95;100.00;99361.20;1462596;89;22360;-84
2021/12/06 09:46:13;;;;;;;6.77;4.90;;;;;;;2.95;100.00;99361.20;1440038;89;22176;-84
2021/12/06 09:48:42;;;;;;;6.47;4.60;;;;;;;2.87;100.00;99356.59;1478310;89;22101;-85
2021/12/06 09:51:14;;;;;;;8.63;4.97;;;;;;;2.71;100.00;99348.36;1440845;91;24297;-85
2021/12/06 09:53:43;;;;;;;7.30;5.00;;;;;;;2.71;100.00;99348.36;1437174;91;23233;-85
2021/12/06 09:56:15;;;;;;;8.83;5.53;;;;;;;2.79;100.00;99352.94;1436846;90;22213;-85
2021/12/06 09:58:47;;;;;;;8.58;6.22;;;;;;;2.74;100.00;99338.97;1428605;91;22231;-84
2021/12/06 10:01:21;;;;;;;9.30;5.40;;;;;;;2.80;100.00;99347.61;1431268;91;21399;-85
2021/12/06 10:03:50;;;;;;;7.40;5.30;;;;;;;2.73;100.00;99346.91;1427186;91;22299;-84
2021/12/06 10:06:17;;;;;;;7.93;6.07;;;;;;;2.84;100.00;99345.56;1426354;91;22166;-84
2021/12/06 10:08:49;;;;;;;7.00;5.17;;;;;;;2.88;100.00;99349.61;1425377;91;22136;-84
2021/12/06 10:11:20;;;;;;;7.67;5.27;;;;;;;2.92;100.00;99347.08;1429050;91;22182;-85
2021/12/06 10:13:54;;;;;;;9.23;6.75;;;;;;;3.01;100.00;99342.89;1438465;91;22151;-84
2021/12/06 10:16:24;;;;;;;8.53;6.00;;;;;;;3.08;100.00;99340.96;1429718;91;21400;-84
2021/12/06 10:18:53;;;;;;;10.40;6.07;;;;;;;3.14;100.00;99344.38;1429640;91;22195;-86
2021/12/06 10:21:24;;;;;;;8.67;5.57;;;;;;;3.13;100.00;99345.31;1429814;91;22227;-84
2021/12/06 10:23:51;;;;;;;6.43;4.47;;;;;;;3.13;100.00;99345.31;1429346;91;22231;-87
2021/12/06 10:26:22;;;;;;;5.63;4.17;;;;;;;3.12;100.00;99344.97;1446991;89;21992;-85
2021/12/06 10:28:51;;;;;;;8.77;4.53;;;;;;;3.15;100.00;99347.33;1443848;90;22315;-85
2021/12/06 10:31:18;;;;;;;6.50;4.60;;;;;;;3.09;100.00;99346.53;1432296;90;23142;-84
2021/12/06 10:33:55;;;;;;;7.57;6.07;;;;;;;3.08;100.00;99346.19;1457132;89;22129;-86
2021/12/06 10:36:25;;;;;;;6.73;5.60;;;;;;;3.09;100.00;99351.77;1456340;89;23108;-85
2021/12/06 10:38:59;;;;;;;7.43;5.57;;;;;;;3.02;100.00;99357.61;1455926;89;22345;-85
2021/12/06 10:41:26;;;;;;;8.40;6.13;;;;;;;3.02;100.00;99357.61;1454414;89;22543;-85
2021/12/06 10:44:11;;;;;;;9.47;6.80;;;;;;;3.08;100.00;99350.11;1504256;89;22204;-85
2021/12/06 10:46:49;;;;;;;11.10;7.17;;;;;;;3.03;100.00;99351.44;1456741;89;22107;-85
2021/12/06 10:49:20;;;;;;;61.27;29.73;;;;;;;3.03;100.00;99349.66;1457683;89;22215;-85
2021/12/06 10:51:46;;;;;;;13.00;7.55;;;;;;;3.07;100.00;99343.20;1455589;89;22314;-84
2021/12/06 10:54:20;;;;;;;7.33;4.77;;;;;;;3.05;100.00;99345.14;1456457;89;21643;-87
2021/12/06 10:56:51;;;;;;;7.13;5.30;;;;;;;2.96;100.00;99346.34;1455864;89;22084;-85
2021/12/06 10:59:28;;;;;;;8.53;6.13;;;;;;;3.05;100.00;99342.52;1459919;89;22065;-85
2021/12/06 11:01:59;;;;;;;8.60;5.47;;;;;;;3.08;100.00;99346.64;1451518;88;22094;-86
2021/12/06 11:04:28;;;;;;;6.12;4.97;;;;;;;2.94;100.00;99347.80;1441818;90;22398;-86
2021/12/06 11:07:05;;;;;;;6.43;4.93;;;;;;;2.91;100.00;99341.52;1448993;90;22337;-85
2021/12/06 11:09:28;;;;;;;7.97;5.63;;;;;;;2.90;100.00;99349.81;1417852;88;23261;-85
2021/12/06 11:11:59;;;;;;;11.43;7.10;;;;;;;2.90;100.00;99353.73;1451782;88;22196;-86
2021/12/06 11:14:36;;;;;;;13.35;7.72;;;;;;;2.93;100.00;99352.20;1442891;88;22118;-86
2021/12/06 11:17:11;;;;;;;41.53;19.47;;;;;;;2.93;100.00;99349.59;1450172;88;21573;-86
2021/12/06 11:19:38;;;;;;;18.00;9.80;;;;;;;3.04;100.00;99348.69;1445368;88;22119;-85
2021/12/06 11:22:09;;;;;;;7.60;5.47;;;;;;;3.12;100.00;99354.12;1448393;88;22136;-85
2021/12/06 11:24:40;;;;;;;8.60;5.40;;;;;;;3.10;100.00;99356.02;1440983;88;22354;-85
2021/12/06 11:27:24;;;;;;;5.67;4.28;;;;;;;3.05;100.00;99363.44;1450686;88;22202;-85
2021/12/06 11:30:00;;;;;;;6.60;4.23;;;;;;;3.07;100.00;99374.58;1447740;88;21507;-86
2021/12/06 11:32:38;;;;;;;18.57;8.97;;;;;;;2.93;100.00;99372.26;1449698;88;22747;-86
2021/12/06 11:35:15;;;;;;;5.63;3.97;;;;;;;2.92;100.00;99375.35;1452520;88;23658;-86
2021/12/06 11:37:50;;;;;;;5.77;3.93;;;;;;;2.79;100.00;99384.30;1461548;88;22176;-86
2021/12/06 11:40:22;;;;;;;6.03;4.57;;;;;;;2.73;100.00;99395.25;1468571;88;23105;-85
2021/12/06 11:43:11;;;;;;;6.37;4.63;;;;;;;2.75;100.00;99401.19;1467724;88;22223;-85
2021/12/06 11:45:56;;;;;;;6.50;3.37;;;;;;;2.75;100.00;99410.34;1462784;88;22087;-85
2021/12/06 11:48:32;;;;;;;5.97;4.63;;;;;;;2.73;100.00;99410.45;1430320;89;22308;-85
2021/12/06 11:51:10;;;;;;;7.63;4.07;;;;;;;2.79;100.00;99403.89;1461055;88;22057;-86
2021/12/06 11:53:48;;;;;;;5.27;3.97;;;;;;;2.69;100.00;99404.64;1462974;88;22124;-86